sensor_id;sensor_type;location;lat;lon;timestamp;P1;durP1;ratioP1;P2;durP2;ratioP2
23358;SDS011;11851;50.796;4.372;2022-08-03T00:01:19;6.70;;;1.40;;
23358;SDS011;11851;50.796;4.372;2022-08-03T00:03:45;3.17;;;1.30;;
23358;SDS011;11851;50.796;4.372;2022-08-03T00:06:11;4.43;;;1.42;;
23358;SDS011;11851;50.796;4.372;2022-08-03T00:08:37;4.35;;;1.50;;
23358;SDS011;11851;50.796;4.372;2022-08-03T00:11:02;5.35;;;1.58;;
23358;SDS011;11851;50.796;4.372;2022-08-03T00:13:28;5.80;;;1.88;;
23358;SDS011;11851;50.796;4.372;2022-08-03T00:15:54;6.10;;;1.40;;
23358;SDS011;11851;50.796;4.372;2022-08-03T00:18:20;6.22;;;1.25;;
23358;SDS011;11851;50.796;4.372;2022-08-03T00:20:46;3.40;;;1.40;;
23358;SDS011;11851;50.796;4.372;2022-08-03T00:23:11;5.55;;;1.50;;
23358;SDS011;11851;50.796;4.372;2022-08-03T00:25:37;3.83;;;1.13;;
23358;SDS011;11851;50.796;4.372;2022-08-03T00:28:03;3.75;;;1.40;;
23358;SDS011;11851;50.796;4.372;2022-08-03T00:30:30;3.42;;;1.35;;
23358;SDS011;11851;50.796;4.372;2022-08-03T00:32:56;3.53;;;1.48;;
23358;SDS011;11851;50.796;4.372;2022-08-03T00:35:22;5.05;;;2.05;;
23358;SDS011;11851;50.796;4.372;2022-08-03T00:37:48;5.70;;;1.75;;
23358;SDS011;11851;50.796;4.372;2022-08-03T00:40:15;5.25;;;1.50;;
23358;SDS011;11851;50.796;4.372;2022-08-03T00:42:51;4.10;;;1.20;;
23358;SDS011;11851;50.796;4.372;2022-08-03T00:45:28;7.28;;;1.67;;
23358;SDS011;11851;50.796;4.372;2022-08-03T00:47:56;3.88;;;1.33;;
23358;SDS011;11851;50.796;4.372;2022-08-03T00:50:23;3.13;;;1.15;;
23358;SDS011;11851;50.796;4.372;2022-08-03T00:52:53;6.47;;;1.98;;
23358;SDS011;11851;50.796;4.372;2022-08-03T00:55:21;3.75;;;1.45;;
23358;SDS011;11851;50.796;4.372;2022-08-03T00:57:47;5.63;;;1.83;;
23358;SDS011;11851;50.796;4.372;2022-08-03T01:00:14;6.20;;;1.40;;
23358;SDS011;11851;50.796;4.372;2022-08-03T01:02:44;5.82;;;1.30;;
23358;SDS011;11851;50.796;4.372;2022-08-03T01:05:11;8.20;;;1.40;;
23358;SDS011;11851;50.796;4.372;2022-08-03T01:13:20;3.85;;;1.20;;
23358;SDS011;11851;50.796;4.372;2022-08-03T01:16:05;6.55;;;1.50;;
23358;SDS011;11851;50.796;4.372;2022-08-03T01:22:03;9.93;;;1.58;;
23358;SDS011;11851;50.796;4.372;2022-08-03T01:30:29;6.68;;;1.40;;
23358;SDS011;11851;50.796;4.372;2022-08-03T01:32:58;5.32;;;1.40;;
23358;SDS011;11851;50.796;4.372;2022-08-03T01:38:23;7.82;;;1.63;;
23358;SDS011;11851;50.796;4.372;2022-08-03T01:40:52;6.22;;;1.70;;
23358;SDS011;11851;50.796;4.372;2022-08-03T01:43:20;4.82;;;1.35;;
23358;SDS011;11851;50.796;4.372;2022-08-03T01:45:52;8.38;;;1.48;;
23358;SDS011;11851;50.796;4.372;2022-08-03T01:48:19;2.42;;;1.15;;
23358;SDS011;11851;50.796;4.372;2022-08-03T01:50:45;5.10;;;1.48;;
23358;SDS011;11851;50.796;4.372;2022-08-03T01:53:15;5.05;;;1.55;;
23358;SDS011;11851;50.796;4.372;2022-08-03T01:55:46;5.60;;;1.50;;
23358;SDS011;11851;50.796;4.372;2022-08-03T01:58:16;10.20;;;1.30;;
23358;SDS011;11851;50.796;4.372;2022-08-03T02:00:44;4.25;;;1.10;;
23358;SDS011;11851;50.796;4.372;2022-08-03T02:03:13;3.15;;;1.33;;
23358;SDS011;11851;50.796;4.372;2022-08-03T02:05:40;6.57;;;1.50;;
23358;SDS011;11851;50.796;4.372;2022-08-03T02:08:09;7.07;;;1.50;;
23358;SDS011;11851;50.796;4.372;2022-08-03T02:10:37;7.10;;;1.33;;
23358;SDS011;11851;50.796;4.372;2022-08-03T02:13:06;4.70;;;1.40;;
23358;SDS011;11851;50.796;4.372;2022-08-03T02:15:32;8.57;;;1.40;;
23358;SDS011;11851;50.796;4.372;2022-08-03T02:18:00;6.13;;;1.48;;
23358;SDS011;11851;50.796;4.372;2022-08-03T02:20:27;4.40;;;1.20;;
23358;SDS011;11851;50.796;4.372;2022-08-03T02:22:56;7.85;;;1.23;;
23358;SDS011;11851;50.796;4.372;2022-08-03T02:25:23;6.18;;;1.40;;
23358;SDS011;11851;50.796;4.372;2022-08-03T02:27:54;6.18;;;1.35;;
23358;SDS011;11851;50.796;4.372;2022-08-03T02:30:22;4.68;;;1.38;;
23358;SDS011;11851;50.796;4.372;2022-08-03T02:32:55;6.35;;;1.50;;
23358;SDS011;11851;50.796;4.372;2022-08-03T02:35:23;6.25;;;1.70;;
23358;SDS011;11851;50.796;4.372;2022-08-03T02:37:51;6.65;;;1.40;;
23358;SDS011;11851;50.796;4.372;2022-08-03T02:40:21;4.18;;;1.27;;
23358;SDS011;11851;50.796;4.372;2022-08-03T02:42:48;5.60;;;1.35;;
23358;SDS011;11851;50.796;4.372;2022-08-03T02:45:17;4.35;;;1.40;;
23358;SDS011;11851;50.796;4.372;2022-08-03T02:47:45;4.55;;;1.50;;
23358;SDS011;11851;50.796;4.372;2022-08-03T02:50:13;2.83;;;1.17;;
23358;SDS011;11851;50.796;4.372;2022-08-03T02:52:40;7.07;;;1.77;;
23358;SDS011;11851;50.796;4.372;2022-08-03T02:55:09;4.55;;;1.48;;
23358;SDS011;11851;50.796;4.372;2022-08-03T02:57:36;8.70;;;1.42;;
23358;SDS011;11851;50.796;4.372;2022-08-03T03:00:03;5.65;;;1.50;;
23358;SDS011;11851;50.796;4.372;2022-08-03T03:02:29;10.90;;;1.90;;
23358;SDS011;11851;50.796;4.372;2022-08-03T03:04:58;4.90;;;1.48;;
23358;SDS011;11851;50.796;4.372;2022-08-03T03:07:25;8.57;;;1.83;;
23358;SDS011;11851;50.796;4.372;2022-08-03T03:09:51;6.18;;;1.30;;
23358;SDS011;11851;50.796;4.372;2022-08-03T03:12:18;6.32;;;1.33;;
23358;SDS011;11851;50.796;4.372;2022-08-03T03:14:45;5.90;;;1.38;;
23358;SDS011;11851;50.796;4.372;2022-08-03T03:17:11;8.48;;;1.63;;
23358;SDS011;11851;50.796;4.372;2022-08-03T03:19:38;4.15;;;1.23;;
23358;SDS011;11851;50.796;4.372;2022-08-03T03:22:06;5.95;;;1.13;;
23358;SDS011;11851;50.796;4.372;2022-08-03T03:24:32;4.75;;;1.25;;
23358;SDS011;11851;50.796;4.372;2022-08-03T03:27:00;4.88;;;1.52;;
23358;SDS011;11851;50.796;4.372;2022-08-03T03:29:26;5.90;;;1.48;;
23358;SDS011;11851;50.796;4.372;2022-08-03T03:31:52;3.70;;;1.52;;
23358;SDS011;11851;50.796;4.372;2022-08-03T03:34:18;4.47;;;1.45;;
23358;SDS011;11851;50.796;4.372;2022-08-03T03:36:44;3.75;;;1.40;;
23358;SDS011;11851;50.796;4.372;2022-08-03T03:39:10;4.70;;;1.20;;
23358;SDS011;11851;50.796;4.372;2022-08-03T03:41:36;6.40;;;1.42;;
23358;SDS011;11851;50.796;4.372;2022-08-03T03:44:03;3.83;;;1.23;;
23358;SDS011;11851;50.796;4.372;2022-08-03T03:46:29;6.70;;;1.65;;
23358;SDS011;11851;50.796;4.372;2022-08-03T03:48:55;5.75;;;1.60;;
23358;SDS011;11851;50.796;4.372;2022-08-03T03:51:21;5.28;;;1.35;;
23358;SDS011;11851;50.796;4.372;2022-08-03T03:53:53;10.18;;;1.55;;
23358;SDS011;11851;50.796;4.372;2022-08-03T03:56:20;4.95;;;1.52;;
23358;SDS011;11851;50.796;4.372;2022-08-03T03:58:46;5.75;;;1.98;;
23358;SDS011;11851;50.796;4.372;2022-08-03T04:01:11;5.65;;;1.42;;
23358;SDS011;11851;50.796;4.372;2022-08-03T04:03:37;5.15;;;1.33;;
23358;SDS011;11851;50.796;4.372;2022-08-03T04:06:03;4.72;;;1.20;;
23358;SDS011;11851;50.796;4.372;2022-08-03T04:08:59;4.85;;;1.40;;
23358;SDS011;11851;50.796;4.372;2022-08-03T04:11:47;7.97;;;1.70;;
23358;SDS011;11851;50.796;4.372;2022-08-03T04:14:21;7.38;;;1.67;;
23358;SDS011;11851;50.796;4.372;2022-08-03T04:17:03;6.30;;;1.83;;
23358;SDS011;11851;50.796;4.372;2022-08-03T04:19:33;4.90;;;1.60;;
23358;SDS011;11851;50.796;4.372;2022-08-03T04:22:06;7.18;;;1.38;;
23358;SDS011;11851;50.796;4.372;2022-08-03T04:24:38;5.55;;;1.45;;
23358;SDS011;11851;50.796;4.372;2022-08-03T04:27:14;6.78;;;1.40;;
23358;SDS011;11851;50.796;4.372;2022-08-03T04:29:45;2.85;;;1.30;;
23358;SDS011;11851;50.796;4.372;2022-08-03T04:32:12;4.15;;;1.65;;
23358;SDS011;11851;50.796;4.372;2022-08-03T04:34:39;7.22;;;1.80;;
23358;SDS011;11851;50.796;4.372;2022-08-03T04:37:07;4.13;;;1.20;;
23358;SDS011;11851;50.796;4.372;2022-08-03T04:39:36;4.32;;;1.75;;
23358;SDS011;11851;50.796;4.372;2022-08-03T04:42:06;7.63;;;2.05;;
23358;SDS011;11851;50.796;4.372;2022-08-03T04:44:36;6.22;;;1.15;;
23358;SDS011;11851;50.796;4.372;2022-08-03T04:47:04;6.35;;;1.48;;
23358;SDS011;11851;50.796;4.372;2022-08-03T04:49:30;3.20;;;1.27;;
23358;SDS011;11851;50.796;4.372;2022-08-03T04:51:57;6.15;;;1.95;;
23358;SDS011;11851;50.796;4.372;2022-08-03T04:54:23;5.53;;;1.60;;
23358;SDS011;11851;50.796;4.372;2022-08-03T04:56:48;8.50;;;1.42;;
23358;SDS011;11851;50.796;4.372;2022-08-03T04:59:14;4.30;;;1.50;;
23358;SDS011;11851;50.796;4.372;2022-08-03T05:01:41;2.97;;;1.35;;
23358;SDS011;11851;50.796;4.372;2022-08-03T05:04:07;9.23;;;1.70;;
23358;SDS011;11851;50.796;4.372;2022-08-03T05:06:33;8.65;;;1.75;;
23358;SDS011;11851;50.796;4.372;2022-08-03T05:08:59;3.85;;;1.52;;
23358;SDS011;11851;50.796;4.372;2022-08-03T05:11:24;4.22;;;1.42;;
23358;SDS011;11851;50.796;4.372;2022-08-03T05:13:50;6.95;;;1.67;;
23358;SDS011;11851;50.796;4.372;2022-08-03T05:16:16;7.25;;;1.67;;
23358;SDS011;11851;50.796;4.372;2022-08-03T05:18:42;5.63;;;1.58;;
23358;SDS011;11851;50.796;4.372;2022-08-03T05:21:08;7.43;;;1.52;;
23358;SDS011;11851;50.796;4.372;2022-08-03T05:23:34;4.38;;;2.00;;
23358;SDS011;11851;50.796;4.372;2022-08-03T05:26:00;3.83;;;1.48;;
23358;SDS011;11851;50.796;4.372;2022-08-03T05:28:26;5.00;;;1.83;;
23358;SDS011;11851;50.796;4.372;2022-08-03T05:30:51;5.90;;;1.70;;
23358;SDS011;11851;50.796;4.372;2022-08-03T05:33:17;8.32;;;2.35;;
23358;SDS011;11851;50.796;4.372;2022-08-03T05:35:43;8.50;;;2.30;;
23358;SDS011;11851;50.796;4.372;2022-08-03T05:38:09;6.57;;;1.90;;
23358;SDS011;11851;50.796;4.372;2022-08-03T05:40:35;7.05;;;2.00;;
23358;SDS011;11851;50.796;4.372;2022-08-03T05:43:00;7.28;;;1.98;;
23358;SDS011;11851;50.796;4.372;2022-08-03T05:45:26;7.88;;;1.95;;
23358;SDS011;11851;50.796;4.372;2022-08-03T05:47:52;8.95;;;2.03;;
23358;SDS011;11851;50.796;4.372;2022-08-03T05:50:18;14.60;;;2.15;;
23358;SDS011;11851;50.796;4.372;2022-08-03T05:52:44;8.43;;;1.90;;
23358;SDS011;11851;50.796;4.372;2022-08-03T05:55:10;5.82;;;1.80;;
23358;SDS011;11851;50.796;4.372;2022-08-03T05:57:37;9.65;;;2.13;;
23358;SDS011;11851;50.796;4.372;2022-08-03T06:00:04;10.77;;;2.60;;
23358;SDS011;11851;50.796;4.372;2022-08-03T06:02:32;11.13;;;2.08;;
23358;SDS011;11851;50.796;4.372;2022-08-03T06:04:57;11.13;;;2.13;;
23358;SDS011;11851;50.796;4.372;2022-08-03T06:07:23;8.30;;;2.00;;
23358;SDS011;11851;50.796;4.372;2022-08-03T06:09:49;4.25;;;1.70;;
23358;SDS011;11851;50.796;4.372;2022-08-03T06:12:14;8.88;;;1.92;;
23358;SDS011;11851;50.796;4.372;2022-08-03T06:14:40;7.43;;;2.28;;
23358;SDS011;11851;50.796;4.372;2022-08-03T06:17:06;8.77;;;1.60;;
23358;SDS011;11851;50.796;4.372;2022-08-03T06:19:32;9.40;;;2.30;;
23358;SDS011;11851;50.796;4.372;2022-08-03T06:21:57;5.28;;;1.48;;
23358;SDS011;11851;50.796;4.372;2022-08-03T06:24:23;8.40;;;1.73;;
23358;SDS011;11851;50.796;4.372;2022-08-03T06:26:49;10.48;;;1.80;;
23358;SDS011;11851;50.796;4.372;2022-08-03T06:29:14;6.00;;;1.63;;
23358;SDS011;11851;50.796;4.372;2022-08-03T06:31:40;8.80;;;1.80;;
23358;SDS011;11851;50.796;4.372;2022-08-03T06:34:06;8.38;;;1.88;;
23358;SDS011;11851;50.796;4.372;2022-08-03T06:36:31;8.82;;;1.75;;
23358;SDS011;11851;50.796;4.372;2022-08-03T06:38:57;10.32;;;2.45;;
23358;SDS011;11851;50.796;4.372;2022-08-03T06:41:24;5.15;;;1.65;;
23358;SDS011;11851;50.796;4.372;2022-08-03T06:43:50;3.92;;;1.67;;
23358;SDS011;11851;50.796;4.372;2022-08-03T06:46:16;5.80;;;1.70;;
23358;SDS011;11851;50.796;4.372;2022-08-03T06:48:41;10.93;;;2.08;;
23358;SDS011;11851;50.796;4.372;2022-08-03T06:51:07;8.75;;;2.25;;
23358;SDS011;11851;50.796;4.372;2022-08-03T06:53:33;7.55;;;1.70;;
23358;SDS011;11851;50.796;4.372;2022-08-03T06:55:58;8.25;;;1.83;;
23358;SDS011;11851;50.796;4.372;2022-08-03T06:58:24;11.30;;;1.70;;
23358;SDS011;11851;50.796;4.372;2022-08-03T07:00:50;10.90;;;2.30;;
23358;SDS011;11851;50.796;4.372;2022-08-03T07:03:16;12.98;;;2.05;;
23358;SDS011;11851;50.796;4.372;2022-08-03T07:05:42;8.73;;;1.92;;
23358;SDS011;11851;50.796;4.372;2022-08-03T07:08:08;6.38;;;1.98;;
23358;SDS011;11851;50.796;4.372;2022-08-03T07:10:34;9.20;;;2.00;;
23358;SDS011;11851;50.796;4.372;2022-08-03T07:13:00;9.77;;;1.88;;
23358;SDS011;11851;50.796;4.372;2022-08-03T07:15:25;12.60;;;1.80;;
23358;SDS011;11851;50.796;4.372;2022-08-03T07:17:51;10.60;;;2.33;;
23358;SDS011;11851;50.796;4.372;2022-08-03T07:23:21;5.95;;;1.63;;
23358;SDS011;11851;50.796;4.372;2022-08-03T07:25:47;14.93;;;2.03;;
23358;SDS011;11851;50.796;4.372;2022-08-03T07:28:12;14.88;;;1.83;;
23358;SDS011;11851;50.796;4.372;2022-08-03T07:30:38;13.27;;;2.10;;
23358;SDS011;11851;50.796;4.372;2022-08-03T07:33:04;15.00;;;2.95;;
23358;SDS011;11851;50.796;4.372;2022-08-03T07:35:29;16.83;;;1.85;;
23358;SDS011;11851;50.796;4.372;2022-08-03T07:37:55;18.63;;;2.20;;
23358;SDS011;11851;50.796;4.372;2022-08-03T07:40:21;10.50;;;2.47;;
23358;SDS011;11851;50.796;4.372;2022-08-03T07:42:46;14.20;;;2.05;;
23358;SDS011;11851;50.796;4.372;2022-08-03T07:45:12;9.60;;;1.90;;
23358;SDS011;11851;50.796;4.372;2022-08-03T07:47:38;12.85;;;1.75;;
23358;SDS011;11851;50.796;4.372;2022-08-03T07:50:04;16.02;;;2.03;;
23358;SDS011;11851;50.796;4.372;2022-08-03T07:52:30;8.02;;;1.70;;
23358;SDS011;11851;50.796;4.372;2022-08-03T07:55:21;19.00;;;2.45;;
23358;SDS011;11851;50.796;4.372;2022-08-03T07:58:04;8.60;;;1.63;;
23358;SDS011;11851;50.796;4.372;2022-08-03T08:00:36;18.25;;;2.33;;
23358;SDS011;11851;50.796;4.372;2022-08-03T08:03:02;16.00;;;2.33;;
23358;SDS011;11851;50.796;4.372;2022-08-03T08:05:29;15.02;;;2.40;;
23358;SDS011;11851;50.796;4.372;2022-08-03T08:07:54;10.70;;;2.00;;
23358;SDS011;11851;50.796;4.372;2022-08-03T08:10:20;14.52;;;2.00;;
23358;SDS011;11851;50.796;4.372;2022-08-03T08:12:46;18.30;;;2.35;;
23358;SDS011;11851;50.796;4.372;2022-08-03T08:15:12;12.68;;;1.85;;
23358;SDS011;11851;50.796;4.372;2022-08-03T08:17:41;19.35;;;2.63;;
23358;SDS011;11851;50.796;4.372;2022-08-03T08:20:09;8.75;;;2.20;;
23358;SDS011;11851;50.796;4.372;2022-08-03T08:22:36;13.68;;;2.13;;
23358;SDS011;11851;50.796;4.372;2022-08-03T08:25:02;14.85;;;2.40;;
23358;SDS011;11851;50.796;4.372;2022-08-03T08:27:28;12.80;;;2.38;;
23358;SDS011;11851;50.796;4.372;2022-08-03T08:29:53;14.00;;;2.08;;
23358;SDS011;11851;50.796;4.372;2022-08-03T08:32:19;18.63;;;2.67;;
23358;SDS011;11851;50.796;4.372;2022-08-03T08:34:45;14.35;;;2.25;;
23358;SDS011;11851;50.796;4.372;2022-08-03T08:37:10;13.52;;;2.03;;
23358;SDS011;11851;50.796;4.372;2022-08-03T08:39:36;14.77;;;1.85;;
23358;SDS011;11851;50.796;4.372;2022-08-03T08:42:01;8.57;;;1.75;;
23358;SDS011;11851;50.796;4.372;2022-08-03T08:44:28;10.38;;;2.17;;
23358;SDS011;11851;50.796;4.372;2022-08-03T08:46:54;8.93;;;1.73;;
23358;SDS011;11851;50.796;4.372;2022-08-03T08:49:22;9.20;;;1.80;;
23358;SDS011;11851;50.796;4.372;2022-08-03T08:51:50;8.95;;;1.65;;
23358;SDS011;11851;50.796;4.372;2022-08-03T08:54:17;13.90;;;1.80;;
23358;SDS011;11851;50.796;4.372;2022-08-03T08:56:46;11.18;;;1.67;;
23358;SDS011;11851;50.796;4.372;2022-08-03T08:59:16;11.60;;;1.83;;
23358;SDS011;11851;50.796;4.372;2022-08-03T09:01:42;6.45;;;1.70;;
23358;SDS011;11851;50.796;4.372;2022-08-03T09:04:08;5.40;;;1.52;;
23358;SDS011;11851;50.796;4.372;2022-08-03T09:06:34;8.57;;;2.00;;
23358;SDS011;11851;50.796;4.372;2022-08-03T09:09:00;8.32;;;2.17;;
23358;SDS011;11851;50.796;4.372;2022-08-03T09:11:25;10.52;;;1.92;;
23358;SDS011;11851;50.796;4.372;2022-08-03T09:13:51;16.02;;;1.90;;
23358;SDS011;11851;50.796;4.372;2022-08-03T09:16:20;8.40;;;1.63;;
23358;SDS011;11851;50.796;4.372;2022-08-03T09:18:50;5.97;;;1.50;;
23358;SDS011;11851;50.796;4.372;2022-08-03T09:21:24;11.43;;;2.08;;
23358;SDS011;11851;50.796;4.372;2022-08-03T09:23:54;19.23;;;2.38;;
23358;SDS011;11851;50.796;4.372;2022-08-03T09:26:24;8.63;;;1.60;;
23358;SDS011;11851;50.796;4.372;2022-08-03T09:29:00;5.82;;;1.25;;
23358;SDS011;11851;50.796;4.372;2022-08-03T09:31:28;10.00;;;1.55;;
23358;SDS011;11851;50.796;4.372;2022-08-03T09:34:02;7.35;;;1.50;;
23358;SDS011;11851;50.796;4.372;2022-08-03T09:36:33;11.15;;;1.35;;
23358;SDS011;11851;50.796;4.372;2022-08-03T09:39:04;11.32;;;1.80;;
23358;SDS011;11851;50.796;4.372;2022-08-03T09:41:35;6.03;;;1.50;;
23358;SDS011;11851;50.796;4.372;2022-08-03T09:44:02;8.68;;;1.33;;
23358;SDS011;11851;50.796;4.372;2022-08-03T09:46:28;7.15;;;1.60;;
23358;SDS011;11851;50.796;4.372;2022-08-03T09:49:11;11.40;;;1.40;;
23358;SDS011;11851;50.796;4.372;2022-08-03T09:51:37;13.10;;;2.05;;
23358;SDS011;11851;50.796;4.372;2022-08-03T09:54:03;8.15;;;1.20;;
23358;SDS011;11851;50.796;4.372;2022-08-03T09:59:09;6.93;;;1.20;;
23358;SDS011;11851;50.796;4.372;2022-08-03T10:01:36;8.07;;;1.13;;
23358;SDS011;11851;50.796;4.372;2022-08-03T10:04:05;14.52;;;1.20;;
23358;SDS011;11851;50.796;4.372;2022-08-03T10:06:39;4.80;;;1.52;;
23358;SDS011;11851;50.796;4.372;2022-08-03T10:09:23;9.25;;;1.15;;
23358;SDS011;11851;50.796;4.372;2022-08-03T10:11:48;6.68;;;1.40;;
23358;SDS011;11851;50.796;4.372;2022-08-03T10:14:14;7.38;;;1.10;;
23358;SDS011;11851;50.796;4.372;2022-08-03T10:16:43;7.55;;;1.35;;
23358;SDS011;11851;50.796;4.372;2022-08-03T10:19:10;6.63;;;1.40;;
23358;SDS011;11851;50.796;4.372;2022-08-03T10:21:38;7.80;;;1.35;;
23358;SDS011;11851;50.796;4.372;2022-08-03T10:24:06;5.07;;;1.33;;
23358;SDS011;11851;50.796;4.372;2022-08-03T10:26:37;5.80;;;1.30;;
23358;SDS011;11851;50.796;4.372;2022-08-03T10:29:05;9.13;;;1.20;;
23358;SDS011;11851;50.796;4.372;2022-08-03T10:31:37;4.25;;;0.95;;
23358;SDS011;11851;50.796;4.372;2022-08-03T10:34:05;15.27;;;1.40;;
23358;SDS011;11851;50.796;4.372;2022-08-03T10:36:39;7.63;;;1.02;;
23358;SDS011;11851;50.796;4.372;2022-08-03T10:39:05;9.10;;;1.13;;
23358;SDS011;11851;50.796;4.372;2022-08-03T10:41:32;5.82;;;1.25;;
23358;SDS011;11851;50.796;4.372;2022-08-03T10:47:03;4.43;;;1.20;;
23358;SDS011;11851;50.796;4.372;2022-08-03T10:49:30;5.35;;;1.30;;
23358;SDS011;11851;50.796;4.372;2022-08-03T10:51:57;7.85;;;1.25;;
23358;SDS011;11851;50.796;4.372;2022-08-03T10:54:36;4.53;;;1.10;;
23358;SDS011;11851;50.796;4.372;2022-08-03T11:00:07;7.13;;;1.52;;
23358;SDS011;11851;50.796;4.372;2022-08-03T11:05:35;6.25;;;1.50;;
23358;SDS011;11851;50.796;4.372;2022-08-03T11:10:55;6.32;;;1.30;;
23358;SDS011;11851;50.796;4.372;2022-08-03T11:13:27;4.38;;;1.42;;
23358;SDS011;11851;50.796;4.372;2022-08-03T11:15:56;11.10;;;1.50;;
23358;SDS011;11851;50.796;4.372;2022-08-03T11:18:24;7.65;;;1.10;;
23358;SDS011;11851;50.796;4.372;2022-08-03T11:20:51;9.98;;;1.50;;
23358;SDS011;11851;50.796;4.372;2022-08-03T11:23:19;9.55;;;1.20;;
23358;SDS011;11851;50.796;4.372;2022-08-03T11:26:12;11.55;;;1.23;;
23358;SDS011;11851;50.796;4.372;2022-08-03T11:28:40;5.60;;;1.15;;
23358;SDS011;11851;50.796;4.372;2022-08-03T11:44:49;6.57;;;0.95;;
23358;SDS011;11851;50.796;4.372;2022-08-03T11:47:17;6.32;;;1.13;;
23358;SDS011;11851;50.796;4.372;2022-08-03T11:49:48;4.28;;;1.08;;
23358;SDS011;11851;50.796;4.372;2022-08-03T11:52:15;2.65;;;1.00;;
23358;SDS011;11851;50.796;4.372;2022-08-03T11:54:42;6.10;;;1.10;;
23358;SDS011;11851;50.796;4.372;2022-08-03T11:57:08;3.08;;;1.10;;
23358;SDS011;11851;50.796;4.372;2022-08-03T11:59:34;4.82;;;1.02;;
23358;SDS011;11851;50.796;4.372;2022-08-03T12:02:11;5.25;;;1.00;;
23358;SDS011;11851;50.796;4.372;2022-08-03T12:07:24;6.32;;;0.93;;
23358;SDS011;11851;50.796;4.372;2022-08-03T12:10:06;6.43;;;1.45;;
23358;SDS011;11851;50.796;4.372;2022-08-03T12:12:38;4.25;;;1.30;;
23358;SDS011;11851;50.796;4.372;2022-08-03T12:15:05;7.07;;;1.25;;
23358;SDS011;11851;50.796;4.372;2022-08-03T12:17:40;3.67;;;1.27;;
23358;SDS011;11851;50.796;4.372;2022-08-03T12:20:07;2.78;;;1.02;;
23358;SDS011;11851;50.796;4.372;2022-08-03T12:22:34;11.30;;;1.13;;
23358;SDS011;11851;50.796;4.372;2022-08-03T12:25:17;6.25;;;1.67;;
23358;SDS011;11851;50.796;4.372;2022-08-03T12:27:49;4.50;;;1.15;;
23358;SDS011;11851;50.796;4.372;2022-08-03T12:30:15;4.07;;;1.17;;
23358;SDS011;11851;50.796;4.372;2022-08-03T12:32:41;6.97;;;1.10;;
23358;SDS011;11851;50.796;4.372;2022-08-03T12:35:08;10.10;;;1.80;;
23358;SDS011;11851;50.796;4.372;2022-08-03T12:37:34;8.02;;;1.10;;
23358;SDS011;11851;50.796;4.372;2022-08-03T12:40:00;3.35;;;0.90;;
23358;SDS011;11851;50.796;4.372;2022-08-03T12:42:34;5.95;;;1.10;;
23358;SDS011;11851;50.796;4.372;2022-08-03T12:50:29;3.67;;;1.13;;
23358;SDS011;11851;50.796;4.372;2022-08-03T12:53:00;3.58;;;1.00;;
23358;SDS011;11851;50.796;4.372;2022-08-03T12:55:28;4.88;;;1.10;;
23358;SDS011;11851;50.796;4.372;2022-08-03T12:58:06;4.97;;;1.10;;
23358;SDS011;11851;50.796;4.372;2022-08-03T13:00:34;8.98;;;1.00;;
23358;SDS011;11851;50.796;4.372;2022-08-03T13:03:02;5.93;;;1.48;;
23358;SDS011;11851;50.796;4.372;2022-08-03T13:05:29;6.72;;;1.00;;
23358;SDS011;11851;50.796;4.372;2022-08-03T13:07:56;3.65;;;1.00;;
23358;SDS011;11851;50.796;4.372;2022-08-03T13:10:29;6.10;;;1.33;;
23358;SDS011;11851;50.796;4.372;2022-08-03T13:12:56;6.68;;;1.20;;
23358;SDS011;11851;50.796;4.372;2022-08-03T13:15:24;3.25;;;0.90;;
23358;SDS011;11851;50.796;4.372;2022-08-03T13:17:52;5.70;;;0.93;;
23358;SDS011;11851;50.796;4.372;2022-08-03T13:20:19;5.10;;;1.08;;
23358;SDS011;11851;50.796;4.372;2022-08-03T13:22:45;3.95;;;0.90;;
23358;SDS011;11851;50.796;4.372;2022-08-03T13:25:12;3.42;;;0.80;;
23358;SDS011;11851;50.796;4.372;2022-08-03T13:27:38;9.07;;;1.35;;
23358;SDS011;11851;50.796;4.372;2022-08-03T13:30:04;5.88;;;1.13;;
23358;SDS011;11851;50.796;4.372;2022-08-03T13:32:31;4.57;;;1.02;;
23358;SDS011;11851;50.796;4.372;2022-08-03T13:34:57;7.25;;;1.90;;
23358;SDS011;11851;50.796;4.372;2022-08-03T13:37:23;3.67;;;1.00;;
23358;SDS011;11851;50.796;4.372;2022-08-03T13:39:50;4.88;;;0.90;;
23358;SDS011;11851;50.796;4.372;2022-08-03T13:42:16;5.88;;;1.10;;
23358;SDS011;11851;50.796;4.372;2022-08-03T13:44:41;5.47;;;0.95;;
23358;SDS011;11851;50.796;4.372;2022-08-03T13:47:07;4.20;;;0.93;;
23358;SDS011;11851;50.796;4.372;2022-08-03T13:49:33;2.75;;;1.10;;
23358;SDS011;11851;50.796;4.372;2022-08-03T13:51:58;5.78;;;1.10;;
23358;SDS011;11851;50.796;4.372;2022-08-03T13:54:24;4.88;;;1.30;;
23358;SDS011;11851;50.796;4.372;2022-08-03T13:56:50;4.13;;;1.15;;
23358;SDS011;11851;50.796;4.372;2022-08-03T13:59:22;5.32;;;1.00;;
23358;SDS011;11851;50.796;4.372;2022-08-03T14:01:49;7.20;;;1.20;;
23358;SDS011;11851;50.796;4.372;2022-08-03T14:04:16;4.35;;;0.98;;
23358;SDS011;11851;50.796;4.372;2022-08-03T14:06:42;7.40;;;1.40;;
23358;SDS011;11851;50.796;4.372;2022-08-03T14:09:11;4.90;;;0.90;;
23358;SDS011;11851;50.796;4.372;2022-08-03T14:11:38;4.43;;;1.30;;
23358;SDS011;11851;50.796;4.372;2022-08-03T14:14:08;2.65;;;0.90;;
23358;SDS011;11851;50.796;4.372;2022-08-03T14:16:34;4.20;;;1.23;;
23358;SDS011;11851;50.796;4.372;2022-08-03T14:19:00;7.25;;;1.15;;
23358;SDS011;11851;50.796;4.372;2022-08-03T14:21:26;4.38;;;1.00;;
23358;SDS011;11851;50.796;4.372;2022-08-03T14:23:52;6.82;;;0.95;;
23358;SDS011;11851;50.796;4.372;2022-08-03T14:26:17;3.20;;;0.80;;
23358;SDS011;11851;50.796;4.372;2022-08-03T14:28:44;9.82;;;1.42;;
23358;SDS011;11851;50.796;4.372;2022-08-03T14:31:10;5.68;;;1.05;;
23358;SDS011;11851;50.796;4.372;2022-08-03T14:33:36;5.57;;;0.95;;
23358;SDS011;11851;50.796;4.372;2022-08-03T14:36:01;7.38;;;1.02;;
23358;SDS011;11851;50.796;4.372;2022-08-03T14:38:27;2.67;;;0.95;;
23358;SDS011;11851;50.796;4.372;2022-08-03T14:40:53;5.03;;;0.98;;
23358;SDS011;11851;50.796;4.372;2022-08-03T14:43:19;9.13;;;1.20;;
23358;SDS011;11851;50.796;4.372;2022-08-03T14:45:45;3.53;;;1.25;;
23358;SDS011;11851;50.796;4.372;2022-08-03T14:48:16;4.43;;;0.93;;
23358;SDS011;11851;50.796;4.372;2022-08-03T14:50:42;2.38;;;0.98;;
23358;SDS011;11851;50.796;4.372;2022-08-03T14:53:08;5.85;;;1.20;;
23358;SDS011;11851;50.796;4.372;2022-08-03T14:55:34;6.65;;;0.90;;
23358;SDS011;11851;50.796;4.372;2022-08-03T14:57:59;5.88;;;1.00;;
23358;SDS011;11851;50.796;4.372;2022-08-03T15:00:29;5.38;;;0.93;;
23358;SDS011;11851;50.796;4.372;2022-08-03T15:02:59;5.10;;;0.98;;
23358;SDS011;11851;50.796;4.372;2022-08-03T15:05:24;4.70;;;1.00;;
23358;SDS011;11851;50.796;4.372;2022-08-03T15:07:50;5.18;;;1.08;;
23358;SDS011;11851;50.796;4.372;2022-08-03T15:10:16;5.78;;;1.20;;
23358;SDS011;11851;50.796;4.372;2022-08-03T15:12:42;11.40;;;1.00;;
23358;SDS011;11851;50.796;4.372;2022-08-03T15:15:08;5.50;;;1.58;;
23358;SDS011;11851;50.796;4.372;2022-08-03T15:17:34;1.40;;;0.90;;
23358;SDS011;11851;50.796;4.372;2022-08-03T15:19:59;3.05;;;0.65;;
23358;SDS011;11851;50.796;4.372;2022-08-03T15:22:25;3.88;;;1.10;;
23358;SDS011;11851;50.796;4.372;2022-08-03T15:24:51;3.42;;;1.10;;
23358;SDS011;11851;50.796;4.372;2022-08-03T15:27:16;3.65;;;1.00;;
23358;SDS011;11851;50.796;4.372;2022-08-03T15:29:42;4.57;;;0.80;;
23358;SDS011;11851;50.796;4.372;2022-08-03T15:32:08;5.97;;;0.90;;
23358;SDS011;11851;50.796;4.372;2022-08-03T15:34:33;3.53;;;0.90;;
23358;SDS011;11851;50.796;4.372;2022-08-03T15:36:59;4.78;;;0.90;;
23358;SDS011;11851;50.796;4.372;2022-08-03T15:39:24;11.27;;;2.00;;
23358;SDS011;11851;50.796;4.372;2022-08-03T15:41:50;3.13;;;0.90;;
23358;SDS011;11851;50.796;4.372;2022-08-03T15:44:19;4.22;;;1.10;;
23358;SDS011;11851;50.796;4.372;2022-08-03T15:46:44;6.18;;;0.95;;